createdAt,value
2018-05-29T00:01:28.422Z,22.37
2018-05-29T00:03:55.927Z,21.73
2018-05-29T00:06:23.431Z,25.23
2018-05-29T00:08:50.902Z,22.23
2018-05-29T00:11:19.282Z,23.47
2018-05-29T00:13:46.747Z,23.97
2018-05-29T00:16:14.340Z,22.83
2018-05-29T00:18:41.824Z,22.63
2018-05-29T00:21:09.351Z,23.05
2018-05-29T00:23:36.906Z,23.30
2018-05-29T00:26:04.399Z,23.80
2018-05-29T00:28:32.131Z,24.20
2018-05-29T00:30:59.779Z,22.90
2018-05-29T00:33:27.343Z,22.23
2018-05-29T00:35:54.837Z,21.97
2018-05-29T00:38:26.623Z,23.23
2018-05-29T00:40:54.219Z,22.30
2018-05-29T00:43:21.779Z,22.17
2018-05-29T00:45:49.334Z,24.17
2018-05-29T00:48:16.891Z,22.50
2018-05-29T00:50:44.459Z,23.33
2018-05-29T00:53:11.930Z,22.80
2018-05-29T00:55:39.420Z,23.60
2018-05-29T00:58:06.926Z,25.03
2018-05-29T01:00:34.429Z,21.30
2018-05-29T01:03:01.944Z,20.27
2018-05-29T01:05:29.498Z,22.03
2018-05-29T01:07:57.054Z,20.63
2018-05-29T01:10:24.539Z,21.77
2018-05-29T01:12:52.015Z,21.00
2018-05-29T01:15:19.503Z,23.20
2018-05-29T01:17:46.972Z,21.80
2018-05-29T01:20:14.459Z,21.37
2018-05-29T01:22:41.932Z,21.40
2018-05-29T01:25:09.447Z,22.33
2018-05-29T01:27:36.947Z,22.63
2018-05-29T01:30:04.487Z,21.10
2018-05-29T01:32:31.984Z,24.00
2018-05-29T01:34:59.502Z,20.90
2018-05-29T01:37:26.994Z,21.43
2018-05-29T01:39:54.502Z,21.23
2018-05-29T01:42:22.052Z,20.03
2018-05-29T01:44:49.520Z,23.00
2018-05-29T01:47:17.564Z,23.40
2018-05-29T01:49:45.035Z,21.00
2018-05-29T01:52:12.594Z,19.93
2018-05-29T01:54:40.269Z,21.27
2018-05-29T01:57:07.811Z,21.30
2018-05-29T01:59:35.366Z,19.90
2018-05-29T02:02:02.922Z,20.30
2018-05-29T02:04:30.468Z,19.97
2018-05-29T02:06:57.949Z,21.23
2018-05-29T02:09:25.503Z,21.73
2018-05-29T02:11:53.064Z,22.57
2018-05-29T02:14:20.554Z,23.30
2018-05-29T02:16:48.076Z,23.00
2018-05-29T02:19:16.363Z,20.87
2018-05-29T02:21:43.861Z,20.47
2018-05-29T02:24:11.733Z,20.90
2018-05-29T02:26:39.222Z,20.17
2018-05-29T02:29:06.695Z,20.90
2018-05-29T02:31:34.198Z,19.90
2018-05-29T02:34:01.666Z,21.07
2018-05-29T02:36:29.168Z,22.73
2018-05-29T02:38:57.381Z,21.03
2018-05-29T02:41:25.087Z,21.70
2018-05-29T02:43:52.569Z,20.87
2018-05-29T02:46:20.114Z,21.20
2018-05-29T02:48:47.664Z,19.03
2018-05-29T02:51:15.157Z,19.47
2018-05-29T02:53:42.651Z,19.67
2018-05-29T02:56:10.133Z,19.40
2018-05-29T02:58:37.610Z,20.70
2018-05-29T03:01:05.094Z,21.20
2018-05-29T03:03:32.599Z,20.80
2018-05-29T03:06:00.072Z,21.03
2018-05-29T03:08:27.623Z,20.23
2018-05-29T03:10:55.463Z,20.73
2018-05-29T03:13:22.960Z,20.37
2018-05-29T03:15:50.448Z,23.10
2018-05-29T03:18:17.943Z,20.70
2018-05-29T03:20:45.419Z,24.00
2018-05-29T03:23:12.914Z,24.60
2018-05-29T03:25:40.421Z,21.23
2018-05-29T03:28:07.913Z,23.20
2018-05-29T03:30:35.764Z,22.27
2018-05-29T03:33:03.254Z,21.33
2018-05-29T03:35:30.792Z,20.63
2018-05-29T03:37:58.298Z,21.33
2018-05-29T03:40:25.880Z,20.97
2018-05-29T03:42:53.370Z,21.67
2018-05-29T03:45:20.850Z,20.93
2018-05-29T03:47:48.406Z,22.47
2018-05-29T03:50:15.870Z,21.60
2018-05-29T03:52:43.473Z,21.13
2018-05-29T03:55:10.943Z,21.77
2018-05-29T03:57:38.503Z,20.57
2018-05-29T04:00:06.040Z,22.47
2018-05-29T04:02:33.615Z,22.80
2018-05-29T04:05:01.094Z,20.90
2018-05-29T04:07:28.619Z,21.67
2018-05-29T04:09:56.099Z,23.97
2018-05-29T04:12:23.624Z,20.93
2018-05-29T04:14:51.721Z,24.07
2018-05-29T04:17:19.214Z,23.40
2018-05-29T04:19:46.750Z,22.27
2018-05-29T04:22:14.270Z,21.70
2018-05-29T04:24:41.823Z,22.00
2018-05-29T04:27:09.403Z,21.70
2018-05-29T04:29:36.873Z,20.53
2018-05-29T04:32:04.362Z,21.67
2018-05-29T04:34:31.874Z,22.90
2018-05-29T04:36:59.486Z,20.83
2018-05-29T04:39:26.969Z,20.93
2018-05-29T04:41:54.538Z,20.47
2018-05-29T04:44:22.030Z,22.57
2018-05-29T04:46:50.129Z,17.53
2018-05-29T04:49:17.638Z,21.50
2018-05-29T04:51:45.426Z,21.65
2018-05-29T04:54:12.907Z,22.00
2018-05-29T04:56:40.414Z,21.20
2018-05-29T04:59:07.891Z,19.03
2018-05-29T05:01:35.364Z,21.03
2018-05-29T05:04:02.854Z,20.30
2018-05-29T05:09:15.693Z,23.63
2018-05-29T05:11:43.163Z,24.85
2018-05-29T05:14:10.687Z,22.75
2018-05-29T05:16:38.268Z,23.23
2018-05-29T05:19:05.766Z,23.33
2018-05-29T05:21:38.170Z,22.52
2018-05-29T05:24:08.520Z,25.58
2018-05-29T05:26:42.207Z,24.83
2018-05-29T05:29:18.834Z,24.92
2018-05-29T05:31:46.307Z,23.52
2018-05-29T05:34:13.858Z,24.50
2018-05-29T05:36:41.727Z,25.77
2018-05-29T05:39:09.246Z,24.33
2018-05-29T05:41:37.145Z,24.52
2018-05-29T05:44:04.730Z,24.23
2018-05-29T05:46:32.310Z,24.90
2018-05-29T05:48:59.806Z,23.85
2018-05-29T05:51:27.275Z,25.30
2018-05-29T05:53:54.779Z,24.58
2018-05-29T05:56:22.251Z,24.00
2018-05-29T05:58:49.743Z,25.00
2018-05-29T06:01:17.249Z,25.05
2018-05-29T06:03:44.890Z,24.95
2018-05-29T06:06:12.471Z,25.35
2018-05-29T06:08:39.967Z,25.37
2018-05-29T06:11:07.447Z,23.60
2018-05-29T06:13:35.187Z,23.75
2018-05-29T06:16:02.857Z,24.42
2018-05-29T06:18:30.359Z,24.92
2018-05-29T06:20:57.836Z,25.05
2018-05-29T06:23:25.332Z,25.77
2018-05-29T06:25:52.807Z,26.15
2018-05-29T06:28:20.355Z,24.08
2018-05-29T06:30:47.831Z,27.45
2018-05-29T06:33:15.411Z,25.98
2018-05-29T06:35:42.891Z,27.77
2018-05-29T06:38:10.420Z,25.02
2018-05-29T06:40:37.987Z,26.87
2018-05-29T06:43:05.540Z,27.30
2018-05-29T06:45:33.212Z,25.20
2018-05-29T06:48:00.694Z,25.50
2018-05-29T06:50:28.186Z,26.37
2018-05-29T06:52:55.650Z,27.65
2018-05-29T06:55:23.151Z,25.20
2018-05-29T06:57:50.656Z,26.05
2018-05-29T07:00:18.144Z,25.62
2018-05-29T07:02:45.620Z,23.87
2018-05-29T07:05:13.155Z,24.52
2018-05-29T07:07:40.713Z,24.83
2018-05-29T07:10:08.236Z,23.67
2018-05-29T07:12:35.706Z,24.00
2018-05-29T07:15:03.195Z,24.80
2018-05-29T07:17:30.747Z,24.50
2018-05-29T07:19:58.315Z,23.52
2018-05-29T07:22:25.746Z,22.58
2018-05-29T07:24:53.315Z,23.42
2018-05-29T07:27:20.875Z,22.35
2018-05-29T07:29:48.370Z,23.00
2018-05-29T07:32:15.882Z,23.58
2018-05-29T07:34:43.449Z,21.60
2018-05-29T07:37:10.944Z,23.30
2018-05-29T07:39:38.476Z,22.80
2018-05-29T07:42:05.943Z,22.40
2018-05-29T07:44:33.435Z,20.90
2018-05-29T07:47:00.928Z,21.67
2018-05-29T07:49:30.043Z,22.17
2018-05-29T07:51:57.584Z,23.02
2018-05-29T07:54:25.138Z,20.98
2018-05-29T07:56:53.687Z,20.98
2018-05-29T07:59:21.312Z,21.23
2018-05-29T08:01:48.855Z,21.60
2018-05-29T08:04:16.348Z,20.75
2018-05-29T08:06:43.853Z,22.45
2018-05-29T08:09:11.410Z,22.13
2018-05-29T08:11:38.970Z,22.02
2018-05-29T08:14:06.533Z,23.17
2018-05-29T08:16:34.007Z,21.25
2018-05-29T08:19:01.543Z,22.13
2018-05-29T08:21:29.106Z,21.62
2018-05-29T08:23:56.599Z,19.98
2018-05-29T08:26:24.110Z,20.27
2018-05-29T08:28:51.581Z,21.23
2018-05-29T08:31:19.079Z,23.73
2018-05-29T08:33:46.553Z,22.52
2018-05-29T08:36:14.147Z,22.33
2018-05-29T08:38:41.623Z,21.60
2018-05-29T08:41:09.138Z,21.73
2018-05-29T08:43:36.720Z,20.12
2018-05-29T08:46:04.261Z,22.48
2018-05-29T08:48:31.695Z,23.27
2018-05-29T08:50:59.287Z,19.87
2018-05-29T08:53:26.857Z,20.90
2018-05-29T08:55:54.403Z,20.70
2018-05-29T08:58:21.876Z,20.85
2018-05-29T09:00:49.426Z,21.98
2018-05-29T09:03:16.898Z,21.27
2018-05-29T09:05:44.437Z,21.65
2018-05-29T09:08:11.998Z,20.98
2018-05-29T09:10:39.513Z,21.35
2018-05-29T09:13:06.984Z,22.52
2018-05-29T09:15:34.785Z,21.98
2018-05-29T09:18:02.435Z,20.85
2018-05-29T09:20:29.930Z,18.98
2018-05-29T09:22:57.395Z,21.87
2018-05-29T09:25:24.883Z,20.55
2018-05-29T09:27:52.521Z,20.20
2018-05-29T09:30:20.015Z,19.75
2018-05-29T09:32:47.502Z,21.25
2018-05-29T09:35:15.035Z,19.70
2018-05-29T09:37:42.736Z,20.23
2018-05-29T09:40:10.355Z,21.77
2018-05-29T09:42:37.877Z,20.50
2018-05-29T09:45:05.503Z,20.15
2018-05-29T09:47:32.985Z,20.27
2018-05-29T09:50:00.475Z,20.73
2018-05-29T09:52:27.955Z,19.67
2018-05-29T09:54:55.448Z,17.95
2018-05-29T09:57:23.067Z,19.87
2018-05-29T09:59:50.645Z,19.70
2018-05-29T10:02:18.208Z,20.42
2018-05-29T10:04:45.768Z,21.12
2018-05-29T10:07:13.311Z,21.10
2018-05-29T10:09:40.779Z,19.50
2018-05-29T10:12:08.288Z,18.60
2018-05-29T10:14:35.774Z,17.52
2018-05-29T10:17:03.325Z,19.70
2018-05-29T10:19:30.799Z,19.37
2018-05-29T10:21:58.282Z,20.58
2018-05-29T10:24:25.823Z,18.27
2018-05-29T10:26:53.356Z,20.75
2018-05-29T10:29:20.830Z,19.00
2018-05-29T10:31:48.347Z,18.73
2018-05-29T10:34:15.833Z,19.90
2018-05-29T10:36:43.335Z,18.27
2018-05-29T10:39:10.827Z,19.92
2018-05-29T10:41:38.318Z,18.50
2018-05-29T10:44:05.786Z,19.55
2018-05-29T10:46:33.276Z,17.67
2018-05-29T10:49:00.755Z,18.70
2018-05-29T10:51:28.296Z,18.62
2018-05-29T10:53:55.767Z,17.90
2018-05-29T10:56:23.278Z,18.75
2018-05-29T10:58:50.751Z,18.62
2018-05-29T11:01:18.239Z,19.85
2018-05-29T11:03:45.716Z,17.10
2018-05-29T11:06:13.232Z,17.90
2018-05-29T11:08:40.695Z,18.67
2018-05-29T11:11:08.188Z,17.40
2018-05-29T11:13:35.727Z,18.35
2018-05-29T11:16:03.467Z,19.05
2018-05-29T11:18:30.942Z,18.05
2018-05-29T11:20:58.511Z,18.00
2018-05-29T11:23:26.053Z,18.98
2018-05-29T11:25:53.726Z,18.48
2018-05-29T11:28:21.198Z,18.37
2018-05-29T11:30:48.690Z,18.80
2018-05-29T11:33:16.167Z,18.12
2018-05-29T11:35:43.655Z,19.27
2018-05-29T11:38:11.124Z,18.90
2018-05-29T11:40:38.623Z,19.20
2018-05-29T11:43:06.099Z,18.90
2018-05-29T11:45:33.571Z,19.10
2018-05-29T11:48:01.068Z,18.17
2018-05-29T11:50:28.545Z,18.35
2018-05-29T11:52:56.059Z,19.67
2018-05-29T11:55:23.637Z,20.90
2018-05-29T11:57:51.138Z,19.70
2018-05-29T12:00:18.610Z,19.83
2018-05-29T12:02:46.118Z,19.92
2018-05-29T12:05:13.593Z,20.30
2018-05-29T12:07:41.125Z,19.17
2018-05-29T12:10:08.588Z,18.60
2018-05-29T12:12:36.225Z,19.08
2018-05-29T12:15:03.752Z,19.02
2018-05-29T12:17:31.245Z,18.87
2018-05-29T12:19:58.751Z,17.95
2018-05-29T12:22:26.306Z,18.83
2018-05-29T12:24:53.746Z,17.60
2018-05-29T12:27:21.245Z,18.37
2018-05-29T12:29:48.723Z,18.05
2018-05-29T12:32:16.227Z,17.92
2018-05-29T12:34:43.695Z,19.33
2018-05-29T12:37:11.188Z,17.55
2018-05-29T12:39:38.655Z,17.10
2018-05-29T12:42:06.159Z,17.05
2018-05-29T12:44:33.638Z,18.23
2018-05-29T12:47:01.147Z,16.20
2018-05-29T12:49:28.620Z,18.27
2018-05-29T12:51:56.177Z,17.45
2018-05-29T12:54:23.661Z,18.52
2018-05-29T12:56:51.158Z,18.45
2018-05-29T12:59:18.659Z,18.67
2018-05-29T13:01:46.285Z,17.23
2018-05-29T13:04:13.765Z,17.65
2018-05-29T13:06:41.356Z,16.50
2018-05-29T13:09:08.904Z,18.17
2018-05-29T13:11:36.463Z,18.05
2018-05-29T13:14:04.010Z,17.48
2018-05-29T13:16:31.617Z,18.40
2018-05-29T13:18:59.107Z,17.35
2018-05-29T13:21:26.604Z,18.50
2018-05-29T13:23:54.094Z,17.73
2018-05-29T13:26:21.563Z,18.45
2018-05-29T13:28:49.064Z,17.77
2018-05-29T13:31:16.552Z,18.42
2018-05-29T13:33:44.120Z,17.67
2018-05-29T13:36:11.621Z,16.77
2018-05-29T13:38:39.119Z,18.40
2018-05-29T13:41:06.652Z,18.25
2018-05-29T13:43:34.175Z,17.90
2018-05-29T13:46:01.718Z,17.98
2018-05-29T13:48:29.253Z,19.35
2018-05-29T13:50:56.843Z,18.67
2018-05-29T13:53:24.354Z,19.62
2018-05-29T13:55:51.859Z,18.52
2018-05-29T13:58:19.374Z,19.10
2018-05-29T14:00:46.847Z,18.52
2018-05-29T14:03:14.360Z,19.33
2018-05-29T14:05:41.832Z,18.58
2018-05-29T14:08:09.320Z,18.85
2018-05-29T14:10:36.806Z,18.52
2018-05-29T14:13:04.295Z,17.62
2018-05-29T14:15:31.767Z,17.10
2018-05-29T14:17:59.280Z,18.75
2018-05-29T14:20:26.759Z,17.83
2018-05-29T14:22:55.096Z,18.73
2018-05-29T14:25:22.580Z,18.83
2018-05-29T14:27:50.103Z,17.83
2018-05-29T14:30:17.579Z,18.33
2018-05-29T14:32:45.676Z,18.83
2018-05-29T14:35:13.143Z,18.92
2018-05-29T14:37:40.651Z,18.85
2018-05-29T14:40:08.122Z,18.48
2018-05-29T14:42:35.619Z,18.85
2018-05-29T14:45:03.105Z,18.30
2018-05-29T14:47:30.599Z,20.10
2018-05-29T14:49:58.090Z,19.83
2018-05-29T14:52:25.618Z,17.73
2018-05-29T14:54:53.076Z,19.60
2018-05-29T14:57:20.588Z,19.65
2018-05-29T14:59:48.058Z,19.87
2018-05-29T15:02:15.536Z,18.87
2018-05-29T15:04:43.029Z,18.65
2018-05-29T15:07:10.504Z,17.90
2018-05-29T15:09:38.003Z,20.75
2018-05-29T15:12:05.474Z,18.98
2018-05-29T15:14:32.972Z,18.80
2018-05-29T15:17:00.444Z,17.27
2018-05-29T15:19:27.943Z,17.98
2018-05-29T15:21:55.412Z,19.33
2018-05-29T15:24:22.905Z,16.35
2018-05-29T15:26:50.435Z,18.98
2018-05-29T15:29:17.938Z,18.62
2018-05-29T15:31:45.408Z,20.35
2018-05-29T15:34:12.901Z,19.23
2018-05-29T15:36:40.374Z,18.33
2018-05-29T15:39:07.867Z,19.87
2018-05-29T15:41:35.344Z,18.42
2018-05-29T15:44:02.851Z,20.23
2018-05-29T15:46:30.325Z,20.37
2018-05-29T15:48:57.888Z,22.52
2018-05-29T15:51:25.365Z,20.70
2018-05-29T15:53:52.868Z,20.40
2018-05-29T15:56:20.343Z,21.23
2018-05-29T15:58:47.836Z,21.00
2018-05-29T16:01:15.310Z,21.75
2018-05-29T16:03:42.804Z,20.92
2018-05-29T16:06:10.271Z,21.70
2018-05-29T16:08:37.764Z,21.75
2018-05-29T16:11:05.235Z,21.35
2018-05-29T16:13:32.730Z,19.75
2018-05-29T16:16:00.204Z,17.65
2018-05-29T16:18:27.706Z,20.55
2018-05-29T16:20:55.176Z,21.00
2018-05-29T16:23:22.675Z,21.85
2018-05-29T16:25:50.159Z,22.20
2018-05-29T16:28:23.643Z,22.37
2018-05-29T16:30:51.136Z,23.25
2018-05-29T16:33:18.711Z,22.33
2018-05-29T16:35:46.193Z,22.73
2018-05-29T16:38:13.700Z,23.75
2018-05-29T16:40:41.373Z,23.90
2018-05-29T16:43:08.912Z,24.55
2018-05-29T16:45:36.705Z,23.95
2018-05-29T16:48:04.561Z,24.23
2018-05-29T16:50:32.068Z,22.42
2018-05-29T16:52:59.548Z,22.33
2018-05-29T16:55:27.055Z,23.40
2018-05-29T16:57:54.531Z,23.05
2018-05-29T17:00:22.028Z,23.08
2018-05-29T17:02:49.494Z,23.90
2018-05-29T17:05:17.009Z,24.30
2018-05-29T17:07:44.489Z,23.40
2018-05-29T17:10:11.987Z,24.37
2018-05-29T17:12:39.583Z,23.25
2018-05-29T17:15:07.204Z,24.60
2018-05-29T17:17:34.625Z,23.90
2018-05-29T17:20:02.130Z,24.37
2018-05-29T17:22:29.605Z,23.83
2018-05-29T17:24:57.389Z,20.58
2018-05-29T17:27:24.873Z,21.12
2018-05-29T17:29:52.389Z,24.63
2018-05-29T17:32:20.011Z,23.25
2018-05-29T17:34:47.507Z,22.85
2018-05-29T17:37:14.973Z,24.08
2018-05-29T17:39:42.465Z,24.23
2018-05-29T17:42:09.930Z,23.23
2018-05-29T17:44:37.419Z,24.33
2018-05-29T17:47:04.890Z,23.15
2018-05-29T17:49:32.384Z,22.90
2018-05-29T17:51:59.874Z,24.98
2018-05-29T17:54:27.366Z,24.00
2018-05-29T17:56:54.840Z,23.33
2018-05-29T17:59:22.367Z,23.73
2018-05-29T18:01:49.898Z,22.77
2018-05-29T18:04:17.395Z,23.15
2018-05-29T18:06:44.942Z,22.55
2018-05-29T18:09:12.494Z,22.85
2018-05-29T18:11:39.976Z,21.45
2018-05-29T18:14:07.521Z,23.55
2018-05-29T18:16:34.955Z,23.77
2018-05-29T18:19:05.300Z,24.08
2018-05-29T18:21:33.255Z,24.58
2018-05-29T18:24:00.955Z,23.02
2018-05-29T18:26:28.479Z,24.02
2018-05-29T18:28:56.040Z,24.30
2018-05-29T18:31:23.535Z,24.50
2018-05-29T18:33:51.149Z,24.85
2018-05-29T18:36:18.661Z,24.87
2018-05-29T18:38:46.155Z,25.75
2018-05-29T18:41:13.714Z,24.08
2018-05-29T18:43:42.094Z,25.80
2018-05-29T18:46:09.635Z,24.87
2018-05-29T18:48:37.296Z,24.35
2018-05-29T18:51:04.810Z,24.50
2018-05-29T18:53:32.310Z,23.75
2018-05-29T18:55:59.849Z,25.35
2018-05-29T18:58:27.393Z,25.75
2018-05-29T19:00:54.939Z,26.65
2018-05-29T19:03:22.460Z,24.45
2018-05-29T19:05:50.169Z,25.45
2018-05-29T19:08:17.730Z,23.73
2018-05-29T19:10:45.246Z,25.00
2018-05-29T19:13:12.859Z,25.55
2018-05-29T19:15:40.613Z,26.90
2018-05-29T19:18:08.354Z,25.77
2018-05-29T19:20:36.239Z,29.45
2018-05-29T19:23:03.909Z,27.17
2018-05-29T19:25:31.378Z,19.77
2018-05-29T19:27:58.967Z,16.83
2018-05-29T19:30:26.509Z,17.48
2018-05-29T19:32:54.211Z,13.62
2018-05-29T19:35:22.144Z,12.80
2018-05-29T19:37:49.659Z,12.50
2018-05-29T19:40:17.566Z,10.77
2018-05-29T19:42:45.188Z,12.32
2018-05-29T19:45:12.754Z,11.90
2018-05-29T19:47:40.289Z,11.43
2018-05-29T19:50:07.922Z,11.60
2018-05-29T19:52:35.492Z,10.48
2018-05-29T19:55:03.025Z,9.68
2018-05-29T19:57:31.355Z,9.65
2018-05-29T19:59:59.120Z,9.38
2018-05-29T20:02:26.652Z,9.45
2018-05-29T20:04:54.170Z,9.35
2018-05-29T20:07:21.799Z,8.48
2018-05-29T20:09:49.379Z,8.15
2018-05-29T20:12:17.027Z,8.45
2018-05-29T20:14:44.638Z,8.93
2018-05-29T20:17:12.193Z,10.32
2018-05-29T20:19:39.764Z,9.07
2018-05-29T20:22:07.472Z,9.32
2018-05-29T20:24:35.129Z,9.43
2018-05-29T20:27:02.775Z,9.27
2018-05-29T20:29:30.638Z,10.02
2018-05-29T20:31:58.134Z,9.18
2018-05-29T20:34:25.636Z,9.23
2018-05-29T20:36:53.284Z,10.53
2018-05-29T20:39:20.896Z,10.13
2018-05-29T20:41:48.489Z,11.77
2018-05-29T20:44:16.191Z,14.60
2018-05-29T20:46:43.744Z,16.05
2018-05-29T20:49:12.038Z,13.85
2018-05-29T20:51:39.670Z,13.07
2018-05-29T20:54:07.180Z,12.02
2018-05-29T20:56:34.703Z,11.57
2018-05-29T20:59:03.508Z,11.53
2018-05-29T21:01:31.983Z,12.13
2018-05-29T21:03:59.491Z,12.70
2018-05-29T21:06:26.979Z,12.57
2018-05-29T21:08:55.560Z,12.93
2018-05-29T21:11:23.066Z,12.90
2018-05-29T21:13:50.653Z,12.37
2018-05-29T21:16:18.176Z,13.07
2018-05-29T21:18:45.779Z,12.33
2018-05-29T21:21:13.327Z,14.00
2018-05-29T21:23:41.280Z,13.47
2018-05-29T21:26:08.842Z,12.18
2018-05-29T21:28:36.330Z,11.70
2018-05-29T21:31:03.818Z,12.40
2018-05-29T21:33:31.296Z,11.17
2018-05-29T21:35:58.791Z,11.47
2018-05-29T21:38:26.275Z,11.53
2018-05-29T21:40:53.834Z,13.67
2018-05-29T21:43:21.351Z,12.43
2018-05-29T21:45:48.890Z,12.37
2018-05-29T21:48:16.462Z,11.27
2018-05-29T21:50:43.941Z,12.93
2018-05-29T21:53:11.570Z,12.27
2018-05-29T21:55:39.042Z,12.33
2018-05-29T21:58:06.803Z,13.23
2018-05-29T22:00:34.274Z,14.40
2018-05-29T22:03:01.763Z,12.37
2018-05-29T22:05:29.234Z,12.37
2018-05-29T22:07:56.723Z,13.17
2018-05-29T22:10:24.194Z,14.10
2018-05-29T22:12:51.691Z,13.50
2018-05-29T22:15:19.171Z,13.10
2018-05-29T22:17:46.662Z,11.13
2018-05-29T22:20:14.132Z,13.23
2018-05-29T22:22:41.633Z,12.53
2018-05-29T22:25:09.106Z,11.90
2018-05-29T22:27:36.743Z,13.27
2018-05-29T22:30:04.210Z,11.77
2018-05-29T22:32:31.695Z,12.97
2018-05-29T22:34:59.261Z,12.27
2018-05-29T22:37:26.751Z,13.40
2018-05-29T22:39:54.235Z,13.77
2018-05-29T22:42:29.937Z,12.53
2018-05-29T22:44:57.410Z,13.80
2018-05-29T22:47:24.900Z,13.90
2018-05-29T22:49:52.378Z,13.57
2018-05-29T22:52:19.866Z,14.37
2018-05-29T22:54:47.335Z,14.70
2018-05-29T22:57:14.825Z,14.60
2018-05-29T22:59:42.299Z,13.87
2018-05-29T23:02:09.870Z,12.80
2018-05-29T23:04:37.343Z,12.97
2018-05-29T23:07:04.892Z,13.37
2018-05-29T23:09:32.354Z,13.00
2018-05-29T23:11:59.850Z,11.80
2018-05-29T23:14:27.355Z,10.60
2018-05-29T23:16:54.838Z,9.73
2018-05-29T23:19:22.306Z,9.83
2018-05-29T23:21:49.831Z,11.87
2018-05-29T23:24:17.387Z,12.27
2018-05-29T23:26:44.869Z,10.17
2018-05-29T23:29:12.355Z,9.13
2018-05-29T23:31:39.819Z,9.77
2018-05-29T23:34:07.635Z,9.50
2018-05-29T23:36:35.178Z,11.23
2018-05-29T23:39:02.668Z,12.03
2018-05-29T23:41:30.139Z,12.57
2018-05-29T23:43:57.665Z,12.57
2018-05-29T23:46:25.206Z,12.80
2018-05-29T23:48:52.691Z,15.67
2018-05-29T23:51:20.163Z,16.67
2018-05-29T23:53:47.659Z,16.30
2018-05-29T23:56:15.132Z,16.73
2018-05-29T23:58:42.691Z,16.37
